Time;durP1;ratioP1;P1;durP2;ratioP2;P2;SDS_P1;SDS_P2;PMS_P1;PMS_P2;Temp;Humidity;BMP_temperature;BMP_pressure;BME280_temperature;BME280_humidity;BME280_pressure;Samples;Min_cycle;Max_cycle;Signal;HPM_P1;HPM_P2
2021/10/14 00:00:40;;;;;;;35.25;22.58;;;;;;;6.79;83.19;93632.63;5090270;28;20028;-51
2021/10/14 00:03:06;;;;;;;30.80;20.10;;;;;;;6.78;82.86;93631.13;5091098;28;20024;-50
2021/10/14 00:05:32;;;;;;;30.73;20.73;;;;;;;6.80;83.19;93625.13;5091286;28;20020;-51
2021/10/14 00:07:57;;;;;;;27.63;19.17;;;;;;;6.65;83.54;93625.56;5091249;28;20020;-50
2021/10/14 00:10:23;;;;;;;34.05;20.70;;;;;;;6.86;83.13;93625.81;5090890;28;20038;-49
2021/10/14 00:12:48;;;;;;;29.33;20.33;;;;;;;6.98;82.33;93626.38;5090885;28;20028;-49
2021/10/14 00:15:14;;;;;;;33.53;20.70;;;;;;;6.97;81.66;93595.47;5091049;28;20024;-49
2021/10/14 00:17:39;;;;;;;32.45;20.58;;;;;;;7.17;81.71;93608.59;5091019;28;20160;-49
2021/10/14 00:20:06;;;;;;;46.83;29.27;;;;;;;7.29;81.54;93623.66;5090616;28;20405;-49
2021/10/14 00:22:32;;;;;;;33.95;22.30;;;;;;;7.25;81.09;93636.97;5090659;28;20051;-50
2021/10/14 00:24:57;;;;;;;37.25;21.27;;;;;;;7.29;81.23;93634.66;5091008;28;20481;-50
2021/10/14 00:27:23;;;;;;;31.08;20.85;;;;;;;7.27;80.69;93630.94;5090933;28;20028;-51
2021/10/14 00:29:48;;;;;;;34.15;21.42;;;;;;;7.14;81.57;93628.88;5090855;28;20405;-47
2021/10/14 00:32:13;;;;;;;29.35;19.13;;;;;;;7.14;80.64;93622.66;5090772;28;20027;-49
2021/10/14 00:34:39;;;;;;;28.00;19.15;;;;;;;7.01;81.51;93620.59;5104873;28;20028;-52
2021/10/14 00:37:04;;;;;;;30.42;20.60;;;;;;;7.10;81.62;93617.47;5111087;28;20092;-49
2021/10/14 00:39:30;;;;;;;31.15;19.92;;;;;;;7.15;81.70;93616.63;5110476;28;20027;-50
2021/10/14 00:41:55;;;;;;;25.73;18.58;;;;;;;7.17;81.46;93621.63;5110728;28;20020;-49
2021/10/14 00:44:20;;;;;;;29.52;20.67;;;;;;;7.14;81.24;93614.41;5111063;28;20020;-48
2021/10/14 00:46:53;;;;;;;28.85;19.42;;;;;;;7.06;81.67;93621.78;5110848;28;20023;-49
2021/10/14 00:49:19;;;;;;;27.17;18.23;;;;;;;6.89;81.58;93591.81;5111061;28;20074;-49
2021/10/14 00:51:46;;;;;;;29.95;19.45;;;;;;;7.20;81.02;93626.78;5110963;28;20441;-49
2021/10/14 00:54:12;;;;;;;31.02;19.85;;;;;;;6.97;81.20;93628.41;5110855;28;20102;-49
2021/10/14 00:56:37;;;;;;;28.65;20.50;;;;;;;6.89;83.14;93622.75;5109775;28;20055;-51
2021/10/14 00:59:03;;;;;;;30.92;20.38;;;;;;;6.93;82.96;93625.19;5110419;28;20059;-49
2021/10/14 01:01:28;;;;;;;35.03;22.02;;;;;;;6.74;83.54;93618.97;5110864;28;20027;-48
2021/10/14 01:03:54;;;;;;;31.27;21.25;;;;;;;6.64;84.48;93615.88;5110864;28;20382;-47
2021/10/14 01:06:20;;;;;;;38.67;19.73;;;;;;;6.81;83.69;93624.63;5110512;28;20031;-50
2021/10/14 01:08:45;;;;;;;31.13;22.95;;;;;;;6.82;83.32;93619.88;5110767;28;20020;-47
2021/10/14 01:11:11;;;;;;;36.53;23.42;;;;;;;6.74;84.48;93618.97;5112487;28;20110;-48
2021/10/14 01:13:37;;;;;;;33.42;20.58;;;;;;;6.78;83.56;93624.91;5114628;28;20020;-47
2021/10/14 01:16:05;;;;;;;28.88;21.80;;;;;;;6.98;83.10;93629.88;5114587;28;20020;-50
2021/10/14 01:18:31;;;;;;;29.55;21.38;;;;;;;7.05;82.60;93636.75;5114728;28;20069;-49
2021/10/14 01:20:56;;;;;;;28.23;19.63;;;;;;;7.11;82.39;93629.91;5114573;28;20028;-49
2021/10/14 01:23:22;;;;;;;253.38;108.93;;;;;;;7.01;83.09;93626.09;5099109;28;20103;-49
2021/10/14 01:25:48;;;;;;;176.68;81.60;;;;;;;7.06;82.56;93613.53;5094030;28;20052;-49
2021/10/14 01:28:14;;;;;;;87.18;42.92;;;;;;;6.97;83.05;93619.41;5094129;28;20111;-50
2021/10/14 01:30:40;;;;;;;128.02;57.30;;;;;;;7.05;82.84;93617.53;5102599;28;20433;-49
2021/10/14 01:33:05;;;;;;;56.33;29.38;;;;;;;7.08;82.06;93616.50;5114236;28;20110;-48
2021/10/14 01:35:31;;;;;;;113.75;53.33;;;;;;;7.14;82.55;93617.91;5114443;28;20115;-50
2021/10/14 01:37:56;;;;;;;73.28;35.67;;;;;;;7.11;82.50;93627.19;5114104;27;20031;-51
2021/10/14 01:40:22;;;;;;;52.55;30.33;;;;;;;7.19;82.78;93624.59;5114173;28;20081;-49
2021/10/14 01:42:47;;;;;;;37.22;22.15;;;;;;;7.21;82.16;93628.25;5114055;28;20038;-48
2021/10/14 01:45:13;;;;;;;46.83;26.90;;;;;;;7.06;82.04;93621.78;5114257;28;20019;-51
2021/10/14 01:47:38;;;;;;;45.33;27.55;;;;;;;6.80;82.61;93622.38;5114035;28;20405;-50
2021/10/14 01:50:05;;;;;;;43.83;25.98;;;;;;;6.69;83.26;93623.28;5114185;28;20030;-51
2021/10/14 01:52:30;;;;;;;39.60;26.58;;;;;;;6.58;83.89;93631.66;5113998;28;20027;-50
2021/10/14 01:54:56;;;;;;;38.63;24.35;;;;;;;6.61;84.92;93625.13;5113809;28;20028;-48
2021/10/14 01:57:21;;;;;;;37.88;25.80;;;;;;;6.76;85.11;93621.94;5114119;28;20035;-48
2021/10/14 01:59:46;;;;;;;38.83;25.90;;;;;;;6.70;84.50;93622.03;5113614;27;20035;-49
2021/10/14 02:02:12;;;;;;;42.17;25.20;;;;;;;6.73;84.71;93617.50;5113580;28;20019;-50
2021/10/14 02:04:37;;;;;;;38.65;26.13;;;;;;;6.75;84.49;93618.47;5113650;28;20034;-51
2021/10/14 02:07:03;;;;;;;34.13;23.15;;;;;;;6.77;84.40;93626.94;5113502;28;20031;-49
2021/10/14 02:09:28;;;;;;;36.30;24.17;;;;;;;6.75;84.41;93625.97;5113558;28;20024;-48
2021/10/14 02:11:54;;;;;;;26.40;18.15;;;;;;;6.75;82.15;93629.44;5113377;28;20024;-47
2021/10/14 02:14:19;;;;;;;27.17;18.65;;;;;;;6.71;83.04;93620.03;5113855;28;20024;-50
2021/10/14 02:16:45;;;;;;;24.95;17.70;;;;;;;6.67;83.12;93620.31;5113766;28;20020;-49
2021/10/14 02:19:10;;;;;;;17.73;12.07;;;;;;;6.58;82.93;93628.19;5113509;28;20019;-48
2021/10/14 02:21:36;;;;;;;11.35;8.23;;;;;;;6.54;81.20;93627.75;5113078;28;20027;-49
2021/10/14 02:24:01;;;;;;;25.88;7.28;;;;;;;6.57;80.53;93621.19;5113096;28;20042;-49
2021/10/14 02:26:26;;;;;;;10.63;6.93;;;;;;;6.55;78.98;93634.69;5104773;28;20485;-48
2021/10/14 02:28:52;;;;;;;12.00;9.10;;;;;;;6.84;80.00;93642.78;5092866;28;20024;-50
2021/10/14 02:31:17;;;;;;;13.18;9.95;;;;;;;6.93;79.93;93646.41;5093086;28;20039;-48
2021/10/14 02:33:43;;;;;;;12.90;10.30;;;;;;;7.04;79.89;93654.50;5092736;28;20028;-49
2021/10/14 02:36:08;;;;;;;16.80;11.30;;;;;;;7.11;80.00;93656.63;5092657;28;20028;-50
2021/10/14 02:38:33;;;;;;;15.60;10.98;;;;;;;7.13;80.04;93659.59;5092813;28;20107;-53
2021/10/14 02:40:59;;;;;;;148.50;18.30;;;;;;;7.21;80.16;93652.97;5092675;28;20478;-51
2021/10/14 02:43:25;;;;;;;13.20;9.93;;;;;;;7.20;80.38;93637.78;5092556;28;20093;-50
2021/10/14 02:45:51;;;;;;;14.45;9.82;;;;;;;7.28;80.57;93655.13;5102232;28;20084;-51
2021/10/14 02:48:16;;;;;;;12.38;8.15;;;;;;;7.14;79.11;93653.59;5112746;27;20513;-49
2021/10/14 02:50:41;;;;;;;11.77;8.52;;;;;;;7.16;79.85;93648.31;5113077;28;20028;-47
2021/10/14 02:53:07;;;;;;;11.57;9.23;;;;;;;7.10;79.75;93646.94;5112720;28;20031;-48
2021/10/14 02:55:32;;;;;;;17.20;8.05;;;;;;;6.86;79.09;93643.00;5112687;28;20023;-48
2021/10/14 02:57:58;;;;;;;8.55;5.93;;;;;;;7.02;78.79;93655.00;5112562;27;20036;-49
2021/10/14 03:00:23;;;;;;;8.32;5.93;;;;;;;7.00;78.65;93657.53;5112534;28;20020;-50
2021/10/14 03:02:49;;;;;;;6.20;5.50;;;;;;;6.71;79.03;93661.91;5112894;28;20028;-47
2021/10/14 03:05:14;;;;;;;8.18;5.68;;;;;;;6.85;80.45;93663.47;5112771;28;20027;-50
2021/10/14 03:07:39;;;;;;;6.88;5.15;;;;;;;6.72;80.97;93670.88;5112743;28;20432;-49
2021/10/14 03:10:07;;;;;;;9.45;5.88;;;;;;;6.83;81.05;93670.75;5112220;28;20027;-49
2021/10/14 03:12:32;;;;;;;6.30;5.07;;;;;;;6.73;79.99;93672.38;5112305;28;20163;-50
2021/10/14 03:14:58;;;;;;;6.18;4.65;;;;;;;6.69;79.91;93669.91;5112309;28;20052;-49
2021/10/14 03:17:23;;;;;;;7.13;5.15;;;;;;;6.70;79.50;93662.44;5112498;28;20077;-48
2021/10/14 03:19:49;;;;;;;5.78;4.82;;;;;;;6.87;79.78;93660.22;5112417;28;20060;-47
2021/10/14 03:22:14;;;;;;;6.28;5.53;;;;;;;7.04;79.61;93673.72;5110771;28;20026;-49
2021/10/14 03:24:39;;;;;;;8.57;6.95;;;;;;;7.03;80.10;93672.97;5112393;28;20023;-48
2021/10/14 03:27:05;;;;;;;9.35;7.45;;;;;;;7.10;80.62;93679.88;5112080;28;20053;-48
2021/10/14 03:29:30;;;;;;;12.85;9.38;;;;;;;7.12;81.19;93671.84;5111991;27;20034;-49
2021/10/14 03:31:56;;;;;;;14.65;8.63;;;;;;;7.13;81.05;93676.06;5111974;28;20028;-47
2021/10/14 03:34:21;;;;;;;14.10;9.00;;;;;;;7.10;81.09;93677.13;5111968;28;20031;-46
2021/10/14 03:36:47;;;;;;;9.50;7.63;;;;;;;7.05;80.99;93678.69;5112179;28;20030;-47
2021/10/14 03:39:12;;;;;;;7.47;5.28;;;;;;;7.10;80.29;93669.63;5111736;28;20035;-49
2021/10/14 03:41:37;;;;;;;8.13;6.00;;;;;;;7.05;80.27;93673.19;5111766;28;20076;-51
2021/10/14 03:44:03;;;;;;;8.68;6.18;;;;;;;7.06;80.62;93671.91;5112037;28;20056;-48
2021/10/14 03:46:28;;;;;;;6.78;5.20;;;;;;;7.02;80.79;93663.25;5096881;28;20085;-48
2021/10/14 03:48:54;;;;;;;7.85;6.20;;;;;;;6.95;80.43;93661.13;5091163;28;20047;-49
2021/10/14 03:51:19;;;;;;;9.32;7.15;;;;;;;6.96;81.62;93668.06;5091553;28;20027;-48
2021/10/14 03:53:45;;;;;;;10.15;8.43;;;;;;;6.88;nan;93653.47;5091139;28;20108;-49
2021/10/14 03:56:10;;;;;;;9.95;8.38;;;;;;;6.90;82.47;93664.66;5091452;28;20035;-49
2021/10/14 03:58:35;;;;;;;10.45;7.90;;;;;;;6.78;81.85;93652.34;5091237;28;20496;-49
2021/10/14 04:01:01;;;;;;;9.27;7.50;;;;;;;6.82;81.47;93667.25;5090690;28;20028;-49
2021/10/14 04:03:26;;;;;;;10.15;8.25;;;;;;;6.83;81.49;93671.50;5090590;28;20386;-50
2021/10/14 04:05:52;;;;;;;10.63;8.05;;;;;;;6.84;81.81;93661.25;5091047;28;20059;-50
2021/10/14 04:08:17;;;;;;;10.27;7.72;;;;;;;6.74;82.17;93673.84;5090906;28;20028;-47
2021/10/14 04:10:42;;;;;;;9.60;8.13;;;;;;;6.80;82.99;93672.53;5091232;28;20019;-47
2021/10/14 04:13:08;;;;;;;9.80;7.65;;;;;;;6.92;82.03;93675.13;5091141;28;20032;-45
2021/10/14 04:15:33;;;;;;;8.93;6.88;;;;;;;6.78;81.94;93650.34;5091101;28;20024;-48
2021/10/14 04:17:59;;;;;;;11.82;6.43;;;;;;;6.97;81.79;93674.31;5091162;28;20629;-48
2021/10/14 04:20:25;;;;;;;7.70;6.90;;;;;;;6.97;81.59;93668.81;5111337;28;20602;-48
2021/10/14 04:22:51;;;;;;;8.52;6.40;;;;;;;6.94;81.07;93669.84;5100497;28;20032;-50
2021/10/14 04:25:17;;;;;;;7.70;6.60;;;;;;;6.94;81.74;93667.09;5090999;28;20028;-49
2021/10/14 04:27:42;;;;;;;13.82;8.00;;;;;;;6.91;81.65;93671.63;5090756;28;20570;-50
2021/10/14 04:30:08;;;;;;;11.75;8.10;;;;;;;6.89;81.01;93671.41;5090595;28;20024;-48
2021/10/14 04:32:33;;;;;;;8.63;7.03;;;;;;;6.98;81.66;93681.28;5090894;28;20046;-49
2021/10/14 04:34:59;;;;;;;10.05;7.90;;;;;;;6.94;80.86;93675.34;5089780;28;20063;-48
2021/10/14 04:37:24;;;;;;;10.32;7.70;;;;;;;6.86;81.20;93670.44;5089321;28;20024;-49
2021/10/14 04:39:50;;;;;;;7.30;6.53;;;;;;;6.82;81.47;93674.75;5090762;28;20053;-48
2021/10/14 04:42:16;;;;;;;8.13;5.05;;;;;;;6.79;80.32;93678.53;5090749;28;20505;-48
2021/10/14 04:44:41;;;;;;;8.38;6.25;;;;;;;6.78;80.78;93679.78;5090351;28;20498;-48
2021/10/14 04:47:07;;;;;;;8.70;6.55;;;;;;;6.74;80.73;93685.56;5110199;28;20043;-48
2021/10/14 04:49:33;;;;;;;9.40;6.63;;;;;;;6.76;81.15;93679.56;5110636;28;20034;-48
2021/10/14 04:51:58;;;;;;;10.55;7.80;;;;;;;6.60;79.89;93675.03;5110990;28;20461;-48
2021/10/14 04:54:24;;;;;;;9.13;7.03;;;;;;;6.49;80.81;93667.69;5110908;28;20035;-47
2021/10/14 04:56:50;;;;;;;10.27;6.10;;;;;;;6.59;81.23;93685.25;5110950;28;20031;-49
2021/10/14 04:59:15;;;;;;;5.90;4.38;;;;;;;6.59;80.78;93679.03;5110519;28;20034;-47
2021/10/14 05:01:40;;;;;;;4.50;3.78;;;;;;;6.66;80.79;93681.94;5110588;28;20031;-48
2021/10/14 05:04:06;;;;;;;71.45;7.50;;;;;;;6.50;79.97;93677.38;5110513;28;20023;-48
2021/10/14 05:06:32;;;;;;;5.90;4.93;;;;;;;6.59;80.96;93690.00;5110513;28;20063;-48
2021/10/14 05:08:57;;;;;;;5.18;4.55;;;;;;;6.62;80.68;93702.69;5110466;28;20062;-48
2021/10/14 05:11:23;;;;;;;10.07;7.15;;;;;;;6.53;80.15;93700.31;5110548;28;20077;-47
2021/10/14 05:13:48;;;;;;;8.63;4.55;;;;;;;6.55;81.84;93692.28;5110395;28;20020;-47
2021/10/14 05:16:13;;;;;;;5.88;4.70;;;;;;;6.54;81.07;93704.53;5110317;28;20031;-47
2021/10/14 05:18:39;;;;;;;5.22;4.30;;;;;;;6.50;80.96;93701.31;5110404;28;20042;-47
2021/10/14 05:21:04;;;;;;;11.05;7.10;;;;;;;6.59;81.07;93706.47;5110349;28;20080;-47
2021/10/14 05:23:30;;;;;;;10.15;7.90;;;;;;;6.49;78.92;93697.84;5094126;28;20087;-49
2021/10/14 05:25:56;;;;;;;13.80;6.32;;;;;;;6.45;80.35;93702.16;5090298;28;20020;-50
2021/10/14 05:28:21;;;;;;;12.10;8.40;;;;;;;6.41;81.34;93712.66;5090361;28;20036;-48
2021/10/14 05:30:47;;;;;;;35.60;15.50;;;;;;;6.38;80.62;93708.19;5098317;28;20569;-46
2021/10/14 05:33:13;;;;;;;39.47;17.55;;;;;;;6.38;80.84;93708.19;5089242;28;20024;-47
2021/10/14 05:35:38;;;;;;;20.17;11.73;;;;;;;6.40;81.29;93711.91;5089284;28;20035;-46
2021/10/14 05:38:06;;;;;;;24.02;14.38;;;;;;;6.37;80.82;93706.69;5088807;28;20050;-50
2021/10/14 05:40:32;;;;;;;14.05;10.45;;;;;;;6.31;81.69;93697.81;5088859;28;20031;-48
2021/10/14 05:42:57;;;;;;;8.90;7.53;;;;;;;6.34;81.12;93705.75;5088885;28;20032;-47
2021/10/14 05:45:23;;;;;;;8.90;6.70;;;;;;;6.41;81.23;93716.13;5094395;28;20059;-49
2021/10/14 05:47:48;;;;;;;6.45;5.38;;;;;;;6.43;81.67;93708.13;5108939;28;20086;-48
2021/10/14 05:50:14;;;;;;;7.28;5.88;;;;;;;6.37;81.56;93696.47;5109132;28;20019;-52
2021/10/14 05:52:39;;;;;;;18.70;10.32;;;;;;;6.37;80.27;93717.66;5109054;28;20038;-47
2021/10/14 05:55:05;;;;;;;11.32;7.50;;;;;;;6.33;81.05;93717.97;5109048;28;20084;-50
2021/10/14 05:57:31;;;;;;;9.20;6.63;;;;;;;6.28;81.03;93721.50;5109975;28;20111;-51
2021/10/14 05:59:56;;;;;;;12.75;7.90;;;;;;;6.25;81.36;93724.53;5112726;28;20080;-49
2021/10/14 06:02:23;;;;;;;11.35;8.65;;;;;;;6.23;83.05;93730.53;5112573;28;20052;-49
2021/10/14 06:04:49;;;;;;;11.20;6.85;;;;;;;6.06;81.50;93730.69;5112968;28;20028;-46
2021/10/14 06:07:14;;;;;;;12.93;9.07;;;;;;;5.96;81.22;93737.75;5111432;27;20126;-46
2021/10/14 06:09:40;;;;;;;14.60;9.73;;;;;;;6.02;83.23;93737.72;5110745;28;20080;-46
2021/10/14 06:12:06;;;;;;;7.40;4.90;;;;;;;5.94;82.91;93740.28;5109210;28;20027;-47
2021/10/14 06:14:31;;;;;;;24.38;11.88;;;;;;;6.18;83.75;93747.78;5110348;28;20106;-47
2021/10/14 06:16:57;;;;;;;21.55;10.52;;;;;;;6.38;83.17;93747.34;5110331;28;20756;-48
2021/10/14 06:19:22;;;;;;;9.68;6.35;;;;;;;6.49;82.29;93747.22;5110389;28;20075;-46
2021/10/14 06:21:48;;;;;;;17.17;7.00;;;;;;;6.51;81.34;93763.16;5108351;28;20036;-47
2021/10/14 06:24:14;;;;;;;8.07;5.65;;;;;;;6.43;80.65;93751.28;5089074;28;20745;-48
2021/10/14 06:26:39;;;;;;;14.07;6.70;;;;;;;6.32;81.79;93746.66;5088898;28;20031;-48
2021/10/14 06:29:05;;;;;;;6.10;5.10;;;;;;;6.50;81.94;93762.41;5090298;28;20496;-48
2021/10/14 06:31:30;;;;;;;4.70;3.08;;;;;;;6.61;81.49;93759.56;5090060;28;20024;-47
2021/10/14 06:33:56;;;;;;;3.50;3.20;;;;;;;6.58;80.96;93754.38;5090037;28;20031;-47
2021/10/14 06:36:22;;;;;;;6.32;4.97;;;;;;;6.66;81.84;93761.50;5090008;28;20425;-47
2021/10/14 06:38:48;;;;;;;6.05;5.20;;;;;;;6.62;81.80;93752.06;5089896;28;20386;-47
2021/10/14 06:41:15;;;;;;;7.25;5.60;;;;;;;6.74;81.32;93765.16;5089568;28;20039;-48
2021/10/14 06:43:41;;;;;;;4.43;3.42;;;;;;;6.64;80.64;93752.31;5089583;28;20120;-47
2021/10/14 06:46:07;;;;;;;3.30;3.00;;;;;;;6.69;80.57;93759.72;5101059;28;20020;-48
2021/10/14 06:48:32;;;;;;;4.03;3.33;;;;;;;6.67;80.72;93767.75;5109884;28;20050;-50
2021/10/14 06:50:58;;;;;;;4.80;3.25;;;;;;;6.59;80.72;93761.31;5109831;28;20024;-48
2021/10/14 06:53:25;;;;;;;3.90;3.47;;;;;;;6.62;80.25;93774.03;5109966;28;20033;-49
2021/10/14 06:55:50;;;;;;;3.05;2.80;;;;;;;6.64;80.09;93779.75;5110035;28;20755;-49
2021/10/14 06:58:16;;;;;;;2.58;2.00;;;;;;;6.63;80.21;93773.50;5110183;28;20043;-45
2021/10/14 07:00:41;;;;;;;3.47;2.08;;;;;;;6.65;79.94;93781.94;5109702;28;20019;-47
2021/10/14 07:03:07;;;;;;;3.85;3.20;;;;;;;6.65;80.00;93783.94;5110084;28;20038;-45
2021/10/14 07:05:33;;;;;;;2.90;2.17;;;;;;;6.65;79.63;93783.94;5109655;28;20077;-47
2021/10/14 07:07:58;;;;;;;2.80;2.00;;;;;;;6.60;79.08;93791.00;5108975;28;20032;-46
2021/10/14 07:10:24;;;;;;;3.83;2.90;;;;;;;6.66;80.97;93790.94;5109869;28;20023;-47
2021/10/14 07:12:50;;;;;;;5.07;3.63;;;;;;;6.64;79.34;93796.19;5089161;28;20425;-45
2021/10/14 07:15:15;;;;;;;13.18;6.07;;;;;;;6.57;79.67;93803.00;5089334;28;20024;-45
2021/10/14 07:17:40;;;;;;;9.25;6.07;;;;;;;6.54;79.42;93806.75;5089073;28;20024;-47
2021/10/14 07:20:06;;;;;;;15.02;7.70;;;;;;;6.56;80.51;93806.97;5089288;28;20111;-43
2021/10/14 07:22:32;;;;;;;9.05;5.88;;;;;;;6.55;80.42;93810.25;5088944;28;20404;-45
2021/10/14 07:24:57;;;;;;;2.97;2.10;;;;;;;6.52;79.84;93800.31;5088290;28;20031;-44
2021/10/14 07:27:23;;;;;;;2.25;2.05;;;;;;;6.59;79.72;93807.97;5088584;28;20750;-47
2021/10/14 07:29:48;;;;;;;2.30;1.85;;;;;;;6.58;79.59;93801.72;5088751;28;20024;-46
2021/10/14 07:32:14;;;;;;;2.80;2.28;;;;;;;6.50;79.22;93794.59;5088322;28;20028;-47
2021/10/14 07:34:39;;;;;;;2.35;2.13;;;;;;;6.56;79.55;93798.03;5101443;28;20058;-50
2021/10/14 07:37:06;;;;;;;5.78;3.17;;;;;;;6.56;80.20;93801.50;5105604;28;20093;-47
2021/10/14 07:39:32;;;;;;;4.75;2.55;;;;;;;6.51;79.42;93799.56;5088732;28;20786;-51
2021/10/14 07:41:58;;;;;;;5.25;3.22;;;;;;;6.52;79.36;93800.31;5088612;28;20039;-46
2021/10/14 07:44:24;;;;;;;4.43;3.17;;;;;;;6.49;78.93;93795.84;5088190;28;20027;-46
2021/10/14 07:46:49;;;;;;;3.60;3.13;;;;;;;6.46;79.05;93800.34;5088329;28;20018;-50
2021/10/14 07:49:16;;;;;;;11.18;5.13;;;;;;;6.46;79.52;93799.59;5088143;28;20023;-46
2021/10/14 07:51:41;;;;;;;8.85;5.15;;;;;;;6.43;79.83;93795.16;5088040;28;20032;-46
2021/10/14 07:54:07;;;;;;;4.50;3.20;;;;;;;6.35;79.13;93794.97;5087898;28;20033;-47
2021/10/14 07:56:33;;;;;;;4.28;2.67;;;;;;;6.37;78.83;93806.19;5088044;28;20024;-45
2021/10/14 07:58:58;;;;;;;3.00;2.33;;;;;;;6.40;79.40;93804.41;5087996;28;20020;-47
2021/10/14 08:01:24;;;;;;;3.08;2.17;;;;;;;6.37;78.83;93811.66;5088097;28;20577;-47
2021/10/14 08:03:49;;;;;;;2.35;2.05;;;;;;;6.33;78.49;93805.72;5088212;28;20504;-48
2021/10/14 08:06:15;;;;;;;4.10;3.70;;;;;;;6.31;78.88;93808.22;5088236;28;20027;-47
2021/10/14 08:08:41;;;;;;;5.75;3.50;;;;;;;6.37;79.52;93810.91;5087815;28;20085;-48
2021/10/14 08:11:07;;;;;;;8.57;5.20;;;;;;;6.25;78.49;93815.78;5088326;28;20119;-42
2021/10/14 08:13:33;;;;;;;25.67;7.15;;;;;;;6.28;79.75;93811.25;5087865;28;20024;-43
2021/10/14 08:15:59;;;;;;;13.65;8.95;;;;;;;6.29;79.44;93799.78;5087826;28;20481;-42
2021/10/14 08:18:24;;;;;;;9.90;6.65;;;;;;;6.40;79.11;93809.91;5087208;28;20123;-40
2021/10/14 08:20:51;;;;;;;7.82;4.07;;;;;;;6.43;78.97;93808.88;5089430;28;20059;-44
2021/10/14 08:23:17;;;;;;;4.82;3.75;;;;;;;6.39;78.02;93794.72;5094489;28;20047;-43
2021/10/14 08:25:42;;;;;;;6.10;3.75;;;;;;;6.37;78.56;93789.72;5090123;28;20024;-40
2021/10/14 08:28:08;;;;;;;7.40;5.15;;;;;;;6.47;78.04;93799.13;5089787;28;20038;-40
2021/10/14 08:30:34;;;;;;;8.07;3.30;;;;;;;6.52;78.90;93795.56;5089900;28;20162;-43
2021/10/14 08:32:59;;;;;;;3.55;2.63;;;;;;;6.54;78.60;93795.06;5089904;28;20485;-39
2021/10/14 08:35:25;;;;;;;3.75;2.67;;;;;;;6.43;77.96;93798.63;5089512;28;20498;-39
2021/10/14 08:37:50;;;;;;;2.20;1.73;;;;;;;6.49;78.27;93802.09;5089817;28;20024;-40
2021/10/14 08:40:16;;;;;;;3.75;2.40;;;;;;;6.54;78.67;93803.28;5089704;28;20043;-39
2021/10/14 08:42:42;;;;;;;7.05;5.25;;;;;;;6.46;78.70;93799.59;5089450;28;20480;-41
2021/10/14 08:45:10;;;;;;;18.77;11.75;;;;;;;6.45;78.08;93803.63;5092732;28;20063;-41
2021/10/14 08:47:37;;;;;;;4.03;1.90;;;;;;;6.47;77.46;93801.84;5109733;28;20067;-43
2021/10/14 08:50:04;;;;;;;6.78;5.10;;;;;;;6.46;77.40;93794.13;5109636;28;20028;-45
2021/10/14 08:52:31;;;;;;;13.83;9.80;;;;;;;6.49;77.67;93801.34;5109533;28;20055;-44
2021/10/14 08:54:57;;;;;;;13.73;9.85;;;;;;;6.43;77.75;93784.19;5109963;28;20031;-42
2021/10/14 08:57:23;;;;;;;5.60;3.72;;;;;;;6.50;77.21;93802.81;5109539;28;20067;-44
2021/10/14 08:59:49;;;;;;;6.82;4.47;;;;;;;6.48;76.92;93805.31;5109622;28;20394;-42
2021/10/14 09:02:17;;;;;;;2.00;1.90;;;;;;;6.26;75.71;93802.81;5109631;28;20023;-42
2021/10/14 09:04:56;;;;;;;4.53;3.80;;;;;;;6.21;77.37;93801.59;5109368;28;20032;-42
2021/10/14 09:07:23;;;;;;;6.88;6.18;;;;;;;6.08;78.32;93804.19;5103774;28;20031;-42
2021/10/14 09:09:49;;;;;;;3.47;2.97;;;;;;;6.02;78.53;93778.84;5087762;28;20036;-43
2021/10/14 09:12:16;;;;;;;4.68;3.47;;;;;;;6.24;78.38;93810.81;5107221;28;20031;-42
2021/10/14 09:14:57;;;;;;;4.75;3.30;;;;;;;6.37;79.17;93799.94;5108818;28;20510;-42
2021/10/14 09:17:37;;;;;;;6.85;5.38;;;;;;;6.44;78.90;93799.38;5109462;28;20024;-42
2021/10/14 09:20:28;;;;;;;4.90;3.35;;;;;;;6.44;78.56;93796.63;5108926;28;20028;-43
2021/10/14 09:22:58;;;;;;;7.97;4.90;;;;;;;6.51;79.06;93785.09;5098734;28;20059;-43
2021/10/14 09:25:34;;;;;;;10.00;7.63;;;;;;;6.52;77.77;93784.59;5106103;28;20080;-43
2021/10/14 09:28:09;;;;;;;3.35;3.03;;;;;;;6.60;78.05;93782.03;5107750;28;20465;-43
2021/10/14 09:30:56;;;;;;;10.75;8.45;;;;;;;6.65;77.89;93792.19;5108677;28;20504;-45
2021/10/14 09:33:44;;;;;;;10.48;8.32;;;;;;;6.62;77.03;93790.47;5105451;28;20412;-43
2021/10/14 09:36:12;;;;;;;8.65;4.40;;;;;;;6.66;77.21;93791.69;5093820;28;20501;-42
2021/10/14 09:38:39;;;;;;;4.85;4.35;;;;;;;6.73;76.91;93788.38;5092430;28;20040;-43
2021/10/14 09:41:06;;;;;;;3.95;3.55;;;;;;;6.70;76.75;93788.63;5092602;28;20028;-43
2021/10/14 09:43:32;;;;;;;5.05;4.55;;;;;;;6.61;76.72;93791.72;5095115;28;20028;-42
2021/10/14 09:45:58;;;;;;;4.88;4.38;;;;;;;6.58;76.70;93790.03;5102797;28;20431;-41
2021/10/14 09:48:23;;;;;;;3.35;3.03;;;;;;;6.63;77.10;93786.47;5112625;28;20621;-42
2021/10/14 09:50:50;;;;;;;4.63;3.13;;;;;;;6.65;77.29;93781.19;5112402;28;20528;-42
2021/10/14 09:53:18;;;;;;;4.70;3.38;;;;;;;6.67;77.13;93784.19;5112500;28;20030;-42
2021/10/14 09:55:45;;;;;;;3.85;2.25;;;;;;;6.55;77.09;93766.34;5111389;28;20035;-42
2021/10/14 09:58:11;;;;;;;1.88;1.65;;;;;;;6.67;77.61;93779.44;5112728;28;20114;-42
2021/10/14 10:00:38;;;;;;;2.60;2.22;;;;;;;6.45;76.73;93767.97;5112434;28;20027;-42
2021/10/14 10:03:06;;;;;;;2.53;2.20;;;;;;;6.60;76.96;93782.78;5111307;28;20553;-40
2021/10/14 10:05:31;;;;;;;4.22;3.10;;;;;;;6.54;76.27;93775.88;5093031;28;20535;-43
2021/10/14 10:07:59;;;;;;;2.90;2.47;;;;;;;6.58;77.31;93781.81;5093586;28;20048;-41
2021/10/14 10:10:27;;;;;;;3.38;3.05;;;;;;;6.61;77.20;93780.75;5091782;28;20066;-41
2021/10/14 10:12:52;;;;;;;3.92;1.85;;;;;;;6.62;77.78;93774.03;5089734;28;20028;-43
2021/10/14 10:15:37;;;;;;;2.95;2.05;;;;;;;6.66;77.22;93771.72;5090960;28;20028;-42
2021/10/14 10:18:02;;;;;;;1.90;1.75;;;;;;;6.69;76.47;93773.44;5091692;28;20032;-42
2021/10/14 10:20:39;;;;;;;4.00;2.97;;;;;;;6.72;76.77;93775.16;5091270;28;20020;-42
2021/10/14 10:23:05;;;;;;;2.35;1.75;;;;;;;6.77;76.92;93771.59;5090634;28;20028;-42
2021/10/14 10:25:30;;;;;;;3.13;1.92;;;;;;;6.70;76.42;93774.91;5090919;28;20410;-42
2021/10/14 10:27:57;;;;;;;2.03;1.60;;;;;;;6.67;76.02;93773.94;5090564;28;20027;-43
2021/10/14 10:30:27;;;;;;;3.95;1.98;;;;;;;6.71;75.74;93768.19;5090673;28;20024;-44
2021/10/14 10:32:52;;;;;;;4.32;2.20;;;;;;;6.68;75.76;93756.25;5090463;28;20031;-45
2021/10/14 10:35:41;;;;;;;3.67;2.30;;;;;;;6.76;75.79;93765.38;5090255;28;20028;-44
2021/10/14 10:38:34;;;;;;;8.10;5.63;;;;;;;6.74;74.20;93767.13;5090799;28;20028;-42
2021/10/14 10:41:02;;;;;;;3.13;2.70;;;;;;;6.67;74.92;93762.25;5089096;28;20078;-42
2021/10/14 10:43:29;;;;;;;2.22;1.92;;;;;;;6.67;76.46;93756.75;5090239;28;20040;-43
2021/10/14 10:45:57;;;;;;;5.07;3.60;;;;;;;6.70;75.94;93752.97;5100435;28;20035;-43
2021/10/14 10:48:34;;;;;;;3.65;3.35;;;;;;;6.78;75.87;93748.38;5110368;28;20494;-43
2021/10/14 10:51:00;;;;;;;6.82;4.10;;;;;;;6.80;76.07;93751.34;5110689;28;20112;-43
2021/10/14 10:53:39;;;;;;;4.35;3.15;;;;;;;6.85;75.29;93745.06;5110797;28;20443;-42
2021/10/14 10:56:05;;;;;;;4.15;3.05;;;;;;;6.89;75.90;93740.78;5109253;27;20065;-44
2021/10/14 10:58:30;;;;;;;5.63;4.10;;;;;;;6.93;75.15;93740.47;5098873;28;20047;-43
2021/10/14 11:00:56;;;;;;;13.57;12.18;;;;;;;6.98;75.34;93739.66;5110214;28;20451;-43
2021/10/14 11:03:26;;;;;;;4.25;3.17;;;;;;;6.97;75.34;93740.94;5110330;28;20039;-42
2021/10/14 11:05:55;;;;;;;3.60;3.15;;;;;;;6.86;75.27;93738.31;5102707;28;20036;-44
2021/10/14 11:08:25;;;;;;;5.35;4.57;;;;;;;6.92;75.69;93732.75;5089758;28;20111;-42
2021/10/14 11:10:56;;;;;;;1.90;1.70;;;;;;;6.94;74.63;93736.47;5090489;28;20039;-44
2021/10/14 11:13:23;;;;;;;8.80;7.60;;;;;;;6.97;75.23;93740.94;5101902;28;20089;-43
2021/10/14 11:15:51;;;;;;;2.75;2.38;;;;;;;6.96;75.25;93742.19;5091166;28;20562;-43
2021/10/14 11:18:17;;;;;;;3.95;3.55;;;;;;;6.98;75.28;93741.66;5093475;28;20030;-43
2021/10/14 11:20:57;;;;;;;3.13;2.60;;;;;;;7.01;75.00;93743.38;5098074;28;20690;-42
2021/10/14 11:23:27;;;;;;;4.28;3.45;;;;;;;6.99;74.94;93743.91;5104486;28;20111;-43
2021/10/14 11:26:16;;;;;;;2.45;2.25;;;;;;;6.95;75.65;93739.97;5109999;28;20024;-43
2021/10/14 11:28:57;;;;;;;2.40;2.17;;;;;;;6.99;76.07;93732.91;5110366;28;20023;-42
2021/10/14 11:31:36;;;;;;;0.70;0.70;;;;;;;7.00;74.79;93731.66;5110406;27;20065;-43
2021/10/14 11:34:22;;;;;;;1.60;1.33;;;;;;;7.01;75.11;93724.91;5110440;28;20028;-42